sensor_id;sensor_type;location;lat;lon;timestamp;pressure;altitude;pressure_sealevel;temperature;humidity
10881;BME280;5493;48.884;8.338;2023-04-22T00:00:31;99501.00;;;13.59;100.00
10881;BME280;5493;48.884;8.338;2023-04-22T00:02:58;99500.63;;;13.51;100.00
10881;BME280;5493;48.884;8.338;2023-04-22T00:05:25;99496.16;;;13.35;100.00
10881;BME280;5493;48.884;8.338;2023-04-22T00:07:52;99487.16;;;13.61;100.00
10881;BME280;5493;48.884;8.338;2023-04-22T00:10:20;99498.59;;;13.63;100.00
10881;BME280;5493;48.884;8.338;2023-04-22T00:12:46;99496.28;;;13.50;100.00
10881;BME280;5493;48.884;8.338;2023-04-22T00:15:13;99486.34;;;13.28;100.00
10881;BME280;5493;48.884;8.338;2023-04-22T00:17:39;99494.19;;;13.03;100.00
10881;BME280;5493;48.884;8.338;2023-04-22T00:20:07;99494.31;;;13.13;100.00
10881;BME280;5493;48.884;8.338;2023-04-22T00:22:35;99496.91;;;12.81;100.00
10881;BME280;5493;48.884;8.338;2023-04-22T00:25:01;99492.00;;;13.00;100.00
10881;BME280;5493;48.884;8.338;2023-04-22T00:27:29;99494.84;;;12.89;100.00
10881;BME280;5493;48.884;8.338;2023-04-22T00:29:56;99490.00;;;12.91;100.00
10881;BME280;5493;48.884;8.338;2023-04-22T00:32:28;99491.19;;;12.78;100.00
10881;BME280;5493;48.884;8.338;2023-04-22T00:34:55;99490.41;;;12.56;100.00
10881;BME280;5493;48.884;8.338;2023-04-22T00:37:22;99487.16;;;12.80;100.00
10881;BME280;5493;48.884;8.338;2023-04-22T00:39:48;99486.53;;;12.73;100.00
10881;BME280;5493;48.884;8.338;2023-04-22T00:42:15;99483.28;;;12.71;100.00
10881;BME280;5493;48.884;8.338;2023-04-22T00:44:45;99478.38;;;12.68;100.00
10881;BME280;5493;48.884;8.338;2023-04-22T00:47:12;99484.28;;;12.87;100.00
10881;BME280;5493;48.884;8.338;2023-04-22T00:49:39;99489.53;;;12.99;100.00
10881;BME280;5493;48.884;8.338;2023-04-22T00:52:05;99484.06;;;13.15;100.00
10881;BME280;5493;48.884;8.338;2023-04-22T00:54:33;99487.66;;;12.99;100.00
10881;BME280;5493;48.884;8.338;2023-04-22T00:57:01;99489.41;;;12.62;100.00
10881;BME280;5493;48.884;8.338;2023-04-22T00:59:28;99481.09;;;12.68;100.00
10881;BME280;5493;48.884;8.338;2023-04-22T01:01:56;99485.50;;;12.53;100.00
10881;BME280;5493;48.884;8.338;2023-04-22T01:04:23;99492.53;;;12.54;100.00
10881;BME280;5493;48.884;8.338;2023-04-22T01:06:50;99489.38;;;12.83;100.00
10881;BME280;5493;48.884;8.338;2023-04-22T01:09:17;99496.78;;;12.93;100.00
10881;BME280;5493;48.884;8.338;2023-04-22T01:11:45;99496.03;;;12.98;100.00
10881;BME280;5493;48.884;8.338;2023-04-22T01:14:12;99498.63;;;12.88;100.00
10881;BME280;5493;48.884;8.338;2023-04-22T01:16:39;99507.44;;;12.78;100.00
10881;BME280;5493;48.884;8.338;2023-04-22T01:19:09;99498.56;;;12.61;100.00
10881;BME280;5493;48.884;8.338;2023-04-22T01:21:37;99498.69;;;12.49;100.00
10881;BME280;5493;48.884;8.338;2023-04-22T01:24:06;99511.84;;;12.41;100.00
10881;BME280;5493;48.884;8.338;2023-04-22T01:26:33;99513.09;;;12.33;100.00
10881;BME280;5493;48.884;8.338;2023-04-22T01:29:01;99507.00;;;12.43;100.00
10881;BME280;5493;48.884;8.338;2023-04-22T01:31:28;99504.94;;;12.50;100.00
10881;BME280;5493;48.884;8.338;2023-04-22T01:33:54;99505.31;;;12.20;100.00
10881;BME280;5493;48.884;8.338;2023-04-22T01:36:21;99510.13;;;12.34;100.00
10881;BME280;5493;48.884;8.338;2023-04-22T01:38:47;99511.19;;;12.55;100.00
10881;BME280;5493;48.884;8.338;2023-04-22T01:41:15;99517.13;;;12.52;100.00
10881;BME280;5493;48.884;8.338;2023-04-22T01:43:42;99510.84;;;12.47;100.00
10881;BME280;5493;48.884;8.338;2023-04-22T01:46:09;99517.38;;;12.51;100.00
10881;BME280;5493;48.884;8.338;2023-04-22T01:48:36;99523.44;;;12.41;100.00
10881;BME280;5493;48.884;8.338;2023-04-22T01:51:03;99524.66;;;12.28;100.00
10881;BME280;5493;48.884;8.338;2023-04-22T01:53:30;99526.09;;;12.36;100.00
10881;BME280;5493;48.884;8.338;2023-04-22T01:55:56;99521.88;;;12.23;100.00
10881;BME280;5493;48.884;8.338;2023-04-22T01:58:27;99523.22;;;12.04;100.00
10881;BME280;5493;48.884;8.338;2023-04-22T02:00:54;99517.50;;;12.01;100.00
10881;BME280;5493;48.884;8.338;2023-04-22T02:03:20;99518.72;;;11.76;100.00
10881;BME280;5493;48.884;8.338;2023-04-22T02:05:47;99504.31;;;11.88;100.00
10881;BME280;5493;48.884;8.338;2023-04-22T02:08:13;99512.84;;;11.96;100.00
10881;BME280;5493;48.884;8.338;2023-04-22T02:10:40;99522.38;;;12.20;100.00
10881;BME280;5493;48.884;8.338;2023-04-22T02:13:06;99524.88;;;12.27;100.00
10881;BME280;5493;48.884;8.338;2023-04-22T02:15:34;99520.31;;;12.27;100.00
10881;BME280;5493;48.884;8.338;2023-04-22T02:18:01;99518.66;;;12.26;100.00
10881;BME280;5493;48.884;8.338;2023-04-22T02:20:27;99519.75;;;12.09;100.00
10881;BME280;5493;48.884;8.338;2023-04-22T02:22:54;99517.22;;;12.02;100.00
10881;BME280;5493;48.884;8.338;2023-04-22T02:25:20;99534.34;;;12.08;100.00
10881;BME280;5493;48.884;8.338;2023-04-22T02:27:47;99528.69;;;12.09;100.00
10881;BME280;5493;48.884;8.338;2023-04-22T02:30:13;99521.97;;;12.12;100.00
10881;BME280;5493;48.884;8.338;2023-04-22T02:32:41;99526.09;;;12.36;100.00
10881;BME280;5493;48.884;8.338;2023-04-22T02:35:08;99525.78;;;12.32;100.00
10881;BME280;5493;48.884;8.338;2023-04-22T02:37:35;99524.56;;;12.23;100.00
10881;BME280;5493;48.884;8.338;2023-04-22T02:40:02;99522.47;;;12.47;100.00
10881;BME280;5493;48.884;8.338;2023-04-22T02:42:29;99525.84;;;12.38;100.00
10881;BME280;5493;48.884;8.338;2023-04-22T02:44:55;99537.53;;;12.21;100.00
10881;BME280;5493;48.884;8.338;2023-04-22T02:47:22;99537.34;;;12.28;100.00
10881;BME280;5493;48.884;8.338;2023-04-22T02:49:50;99539.22;;;12.27;100.00
10881;BME280;5493;48.884;8.338;2023-04-22T02:52:16;99540.88;;;12.12;100.00
10881;BME280;5493;48.884;8.338;2023-04-22T02:54:43;99532.03;;;12.16;100.00
10881;BME280;5493;48.884;8.338;2023-04-22T02:57:09;99533.03;;;12.10;100.00
10881;BME280;5493;48.884;8.338;2023-04-22T02:59:36;99540.72;;;12.18;100.00
10881;BME280;5493;48.884;8.338;2023-04-22T03:02:02;99531.97;;;12.11;100.00
10881;BME280;5493;48.884;8.338;2023-04-22T03:04:29;99536.31;;;11.96;100.00
10881;BME280;5493;48.884;8.338;2023-04-22T03:06:58;99537.44;;;11.66;100.00
10881;BME280;5493;48.884;8.338;2023-04-22T03:09:24;99535.19;;;11.75;100.00
10881;BME280;5493;48.884;8.338;2023-04-22T03:11:51;99528.13;;;11.91;100.00
10881;BME280;5493;48.884;8.338;2023-04-22T03:14:17;99528.78;;;11.98;100.00
10881;BME280;5493;48.884;8.338;2023-04-22T03:16:43;99529.03;;;11.79;100.00
10881;BME280;5493;48.884;8.338;2023-04-22T03:19:10;99533.53;;;11.74;100.00
10881;BME280;5493;48.884;8.338;2023-04-22T03:21:36;99532.50;;;11.47;100.00
10881;BME280;5493;48.884;8.338;2023-04-22T03:24:05;99536.09;;;11.35;100.00
10881;BME280;5493;48.884;8.338;2023-04-22T03:26:31;99540.53;;;11.42;100.00
10881;BME280;5493;48.884;8.338;2023-04-22T03:28:58;99541.75;;;11.51;100.00
10881;BME280;5493;48.884;8.338;2023-04-22T03:31:24;99539.25;;;11.61;100.00
10881;BME280;5493;48.884;8.338;2023-04-22T03:33:51;99546.53;;;11.60;100.00
10881;BME280;5493;48.884;8.338;2023-04-22T03:36:17;99547.69;;;11.36;100.00
10881;BME280;5493;48.884;8.338;2023-04-22T03:38:44;99542.50;;;11.18;100.00
10881;BME280;5493;48.884;8.338;2023-04-22T03:41:12;99542.63;;;11.40;100.00
10881;BME280;5493;48.884;8.338;2023-04-22T03:43:38;99540.84;;;11.28;100.00
10881;BME280;5493;48.884;8.338;2023-04-22T03:46:05;99537.41;;;11.05;100.00
10881;BME280;5493;48.884;8.338;2023-04-22T03:48:32;99543.13;;;11.08;100.00
10881;BME280;5493;48.884;8.338;2023-04-22T03:50:59;99536.50;;;10.99;100.00
10881;BME280;5493;48.884;8.338;2023-04-22T03:53:26;99538.56;;;11.09;100.00
10881;BME280;5493;48.884;8.338;2023-04-22T03:55:53;99529.34;;;11.21;100.00
10881;BME280;5493;48.884;8.338;2023-04-22T03:58:21;99534.41;;;11.18;100.00
10881;BME280;5493;48.884;8.338;2023-04-22T04:00:47;99529.34;;;11.21;100.00
10881;BME280;5493;48.884;8.338;2023-04-22T04:03:14;99526.03;;;11.31;100.00
10881;BME280;5493;48.884;8.338;2023-04-22T04:05:41;99537.50;;;11.38;100.00
10881;BME280;5493;48.884;8.338;2023-04-22T04:08:07;99534.84;;;11.26;100.00
10881;BME280;5493;48.884;8.338;2023-04-22T04:10:35;99529.91;;;11.07;100.00
10881;BME280;5493;48.884;8.338;2023-04-22T04:13:01;99515.78;;;11.16;100.00
10881;BME280;5493;48.884;8.338;2023-04-22T04:15:30;99512.22;;;11.27;100.00
10881;BME280;5493;48.884;8.338;2023-04-22T04:17:58;99508.03;;;11.20;100.00
10881;BME280;5493;48.884;8.338;2023-04-22T04:20:25;99508.50;;;11.17;100.00
10881;BME280;5493;48.884;8.338;2023-04-22T04:22:52;99511.81;;;11.35;100.00
10881;BME280;5493;48.884;8.338;2023-04-22T04:25:18;99512.59;;;11.36;100.00
10881;BME280;5493;48.884;8.338;2023-04-22T04:27:45;99513.34;;;11.31;100.00
10881;BME280;5493;48.884;8.338;2023-04-22T04:30:12;99513.03;;;11.28;100.00
10881;BME280;5493;48.884;8.338;2023-04-22T04:32:41;99515.41;;;11.24;100.00
10881;BME280;5493;48.884;8.338;2023-04-22T04:35:10;99523.28;;;11.14;100.00
10881;BME280;5493;48.884;8.338;2023-04-22T04:37:38;99518.41;;;10.71;100.00
10881;BME280;5493;48.884;8.338;2023-04-22T04:40:06;99526.63;;;11.05;100.00
10881;BME280;5493;48.884;8.338;2023-04-22T04:42:34;99519.06;;;10.90;100.00
10881;BME280;5493;48.884;8.338;2023-04-22T04:45:01;99520.44;;;10.93;100.00
10881;BME280;5493;48.884;8.338;2023-04-22T04:47:28;99514.47;;;10.91;100.00
10881;BME280;5493;48.884;8.338;2023-04-22T04:49:59;99521.34;;;10.81;100.00
10881;BME280;5493;48.884;8.338;2023-04-22T04:52:25;99527.25;;;10.95;100.00
10881;BME280;5493;48.884;8.338;2023-04-22T04:54:52;99525.41;;;10.84;100.00
10881;BME280;5493;48.884;8.338;2023-04-22T04:57:18;99534.88;;;10.86;100.00
10881;BME280;5493;48.884;8.338;2023-04-22T04:59:45;99535.59;;;10.82;100.00
10881;BME280;5493;48.884;8.338;2023-04-22T05:02:11;99539.47;;;10.86;100.00
10881;BME280;5493;48.884;8.338;2023-04-22T05:04:38;99535.22;;;10.50;100.00
10881;BME280;5493;48.884;8.338;2023-04-22T05:07:06;99530.16;;;10.65;100.00
10881;BME280;5493;48.884;8.338;2023-04-22T05:09:32;99537.28;;;10.71;100.00
10881;BME280;5493;48.884;8.338;2023-04-22T05:12:01;99536.69;;;10.81;100.00
10881;BME280;5493;48.884;8.338;2023-04-22T05:14:28;99537.41;;;10.65;100.00
10881;BME280;5493;48.884;8.338;2023-04-22T05:16:54;99542.44;;;10.73;100.00
10881;BME280;5493;48.884;8.338;2023-04-22T05:19:21;99543.16;;;10.68;100.00
10881;BME280;5493;48.884;8.338;2023-04-22T05:21:47;99542.81;;;10.65;100.00
10881;BME280;5493;48.884;8.338;2023-04-22T05:24:15;99546.72;;;10.85;100.00
10881;BME280;5493;48.884;8.338;2023-04-22T05:26:41;99546.94;;;10.96;100.00
10881;BME280;5493;48.884;8.338;2023-04-22T05:29:08;99540.81;;;11.00;100.00
10881;BME280;5493;48.884;8.338;2023-04-22T05:31:35;99538.97;;;10.89;100.00
10881;BME280;5493;48.884;8.338;2023-04-22T05:34:01;99552.09;;;11.25;100.00
10881;BME280;5493;48.884;8.338;2023-04-22T05:36:27;99547.94;;;11.34;100.00
10881;BME280;5493;48.884;8.338;2023-04-22T05:38:54;99550.72;;;11.40;100.00
10881;BME280;5493;48.884;8.338;2023-04-22T05:41:22;99552.59;;;11.67;100.00
10881;BME280;5493;48.884;8.338;2023-04-22T05:43:48;99563.66;;;11.82;100.00
10881;BME280;5493;48.884;8.338;2023-04-22T05:46:15;99563.34;;;11.79;100.00
10881;BME280;5493;48.884;8.338;2023-04-22T05:48:41;99567.25;;;11.88;100.00
10881;BME280;5493;48.884;8.338;2023-04-22T05:51:08;99567.75;;;11.85;100.00
10881;BME280;5493;48.884;8.338;2023-04-22T05:53:34;99571.19;;;12.14;100.00
10881;BME280;5493;48.884;8.338;2023-04-22T05:56:01;99576.94;;;12.01;100.00
10881;BME280;5493;48.884;8.338;2023-04-22T05:58:29;99566.38;;;11.99;100.00
10881;BME280;5493;48.884;8.338;2023-04-22T06:00:55;99572.81;;;11.98;100.00
10881;BME280;5493;48.884;8.338;2023-04-22T06:03:22;99569.28;;;12.31;100.00
10881;BME280;5493;48.884;8.338;2023-04-22T06:05:48;99566.88;;;12.51;100.00
10881;BME280;5493;48.884;8.338;2023-04-22T06:08:15;99574.69;;;12.69;100.00
10881;BME280;5493;48.884;8.338;2023-04-22T06:10:43;99582.31;;;12.72;100.00
10881;BME280;5493;48.884;8.338;2023-04-22T06:13:10;99573.91;;;12.52;100.00
10881;BME280;5493;48.884;8.338;2023-04-22T06:15:38;99573.41;;;12.55;100.00
10881;BME280;5493;48.884;8.338;2023-04-22T06:18:04;99567.97;;;12.94;100.00
10881;BME280;5493;48.884;8.338;2023-04-22T06:20:31;99575.31;;;12.98;100.00
10881;BME280;5493;48.884;8.338;2023-04-22T06:23:00;99566.03;;;13.11;100.00
10881;BME280;5493;48.884;8.338;2023-04-22T06:25:29;99568.53;;;13.44;100.00
10881;BME280;5493;48.884;8.338;2023-04-22T06:27:56;99573.19;;;14.12;100.00
10881;BME280;5493;48.884;8.338;2023-04-22T06:30:22;99564.19;;;14.02;100.00
10881;BME280;5493;48.884;8.338;2023-04-22T06:32:51;99560.47;;;14.13;100.00
10881;BME280;5493;48.884;8.338;2023-04-22T06:35:19;99550.81;;;14.27;100.00
10881;BME280;5493;48.884;8.338;2023-04-22T06:37:46;99552.06;;;14.51;100.00
10881;BME280;5493;48.884;8.338;2023-04-22T06:40:13;99551.53;;;15.26;100.00
10881;BME280;5493;48.884;8.338;2023-04-22T06:42:40;99544.13;;;15.02;100.00
10881;BME280;5493;48.884;8.338;2023-04-22T06:45:07;99549.22;;;15.75;100.00
10881;BME280;5493;48.884;8.338;2023-04-22T06:47:37;99546.94;;;16.53;100.00
10881;BME280;5493;48.884;8.338;2023-04-22T06:50:05;99547.69;;;17.38;100.00
10881;BME280;5493;48.884;8.338;2023-04-22T06:52:32;99540.75;;;18.24;100.00
10881;BME280;5493;48.884;8.338;2023-04-22T06:54:59;99543.03;;;18.69;100.00
10881;BME280;5493;48.884;8.338;2023-04-22T06:57:27;99547.22;;;19.46;100.00
10881;BME280;5493;48.884;8.338;2023-04-22T06:59:53;99551.75;;;20.07;100.00
10881;BME280;5493;48.884;8.338;2023-04-22T07:02:20;99556.19;;;20.35;100.00
10881;BME280;5493;48.884;8.338;2023-04-22T07:04:47;99552.34;;;21.68;100.00
10881;BME280;5493;48.884;8.338;2023-04-22T07:07:15;99549.94;;;22.11;100.00
10881;BME280;5493;48.884;8.338;2023-04-22T07:09:41;99544.88;;;22.57;100.00
10881;BME280;5493;48.884;8.338;2023-04-22T07:12:08;99547.19;;;22.64;100.00
10881;BME280;5493;48.884;8.338;2023-04-22T07:14:35;99557.31;;;22.94;100.00
10881;BME280;5493;48.884;8.338;2023-04-22T07:17:02;99555.69;;;23.67;100.00
10881;BME280;5493;48.884;8.338;2023-04-22T07:19:28;99558.78;;;23.82;100.00
10881;BME280;5493;48.884;8.338;2023-04-22T07:21:55;99555.38;;;24.20;97.76
10881;BME280;5493;48.884;8.338;2023-04-22T07:24:23;99566.38;;;24.02;100.00
10881;BME280;5493;48.884;8.338;2023-04-22T07:26:50;99564.38;;;23.34;100.00
10881;BME280;5493;48.884;8.338;2023-04-22T07:29:16;99579.13;;;23.38;100.00
10881;BME280;5493;48.884;8.338;2023-04-22T07:31:43;99568.16;;;22.90;100.00
10881;BME280;5493;48.884;8.338;2023-04-22T07:34:10;99561.19;;;23.67;100.00
10881;BME280;5493;48.884;8.338;2023-04-22T07:36:36;99564.09;;;24.22;100.00
10881;BME280;5493;48.884;8.338;2023-04-22T07:39:03;99556.28;;;24.41;99.73
10881;BME280;5493;48.884;8.338;2023-04-22T07:41:31;99555.63;;;25.20;94.32
10881;BME280;5493;48.884;8.338;2023-04-22T07:43:58;99546.66;;;25.52;92.75
10881;BME280;5493;48.884;8.338;2023-04-22T07:46:24;99545.78;;;25.81;89.89
10881;BME280;5493;48.884;8.338;2023-04-22T07:48:51;99538.09;;;25.66;91.00
10881;BME280;5493;48.884;8.338;2023-04-22T07:51:17;99542.72;;;24.65;96.51
10881;BME280;5493;48.884;8.338;2023-04-22T07:53:44;99535.28;;;25.54;88.34
10881;BME280;5493;48.884;8.338;2023-04-22T07:56:11;99535.97;;;24.45;90.49
10881;BME280;5493;48.884;8.338;2023-04-22T07:58:39;99534.66;;;25.89;87.67
10881;BME280;5493;48.884;8.338;2023-04-22T08:01:06;99524.34;;;26.56;90.14
10881;BME280;5493;48.884;8.338;2023-04-22T08:03:32;99531.16;;;26.46;87.43
10881;BME280;5493;48.884;8.338;2023-04-22T08:05:59;99529.88;;;26.43;81.54
10881;BME280;5493;48.884;8.338;2023-04-22T08:08:25;99524.25;;;26.40;84.22
10881;BME280;5493;48.884;8.338;2023-04-22T08:10:52;99516.78;;;26.65;81.88
10881;BME280;5493;48.884;8.338;2023-04-22T08:13:18;99526.38;;;26.22;83.18
10881;BME280;5493;48.884;8.338;2023-04-22T08:15:46;99518.16;;;27.19;77.60
10881;BME280;5493;48.884;8.338;2023-04-22T08:18:12;99518.75;;;27.01;78.52
10881;BME280;5493;48.884;8.338;2023-04-22T08:20:39;99518.50;;;27.18;71.56
10881;BME280;5493;48.884;8.338;2023-04-22T08:23:05;99513.91;;;27.89;70.36
10881;BME280;5493;48.884;8.338;2023-04-22T08:25:33;99514.72;;;27.90;71.72
10881;BME280;5493;48.884;8.338;2023-04-22T08:28:00;99516.00;;;27.01;71.22
10881;BME280;5493;48.884;8.338;2023-04-22T08:30:26;99518.03;;;26.79;76.33
10881;BME280;5493;48.884;8.338;2023-04-22T08:32:54;99523.41;;;26.52;74.66
10881;BME280;5493;48.884;8.338;2023-04-22T08:35:21;99526.66;;;26.54;77.38
10881;BME280;5493;48.884;8.338;2023-04-22T08:37:47;99529.28;;;26.26;77.76
10881;BME280;5493;48.884;8.338;2023-04-22T08:40:14;99524.50;;;25.61;74.20
10881;BME280;5493;48.884;8.338;2023-04-22T08:42:42;99523.84;;;25.64;74.42
10881;BME280;5493;48.884;8.338;2023-04-22T08:45:09;99517.75;;;25.50;80.88
10881;BME280;5493;48.884;8.338;2023-04-22T08:47:36;99513.00;;;25.29;85.02
10881;BME280;5493;48.884;8.338;2023-04-22T08:50:05;99513.06;;;26.16;80.49
10881;BME280;5493;48.884;8.338;2023-04-22T08:52:33;99512.03;;;26.77;78.15
10881;BME280;5493;48.884;8.338;2023-04-22T08:55:00;99508.50;;;26.77;82.21
10881;BME280;5493;48.884;8.338;2023-04-22T08:57:27;99501.28;;;26.27;76.94
10881;BME280;5493;48.884;8.338;2023-04-22T08:59:55;99505.31;;;25.64;85.63
10881;BME280;5493;48.884;8.338;2023-04-22T09:02:23;99504.06;;;25.32;84.87
10881;BME280;5493;48.884;8.338;2023-04-22T09:04:51;99494.41;;;26.58;79.18
10881;BME280;5493;48.884;8.338;2023-04-22T09:07:22;99487.41;;;26.97;74.81
10881;BME280;5493;48.884;8.338;2023-04-22T09:09:49;99497.44;;;27.01;80.17
10881;BME280;5493;48.884;8.338;2023-04-22T09:12:16;99485.44;;;26.85;73.32
10881;BME280;5493;48.884;8.338;2023-04-22T09:14:43;99480.00;;;26.76;81.92
10881;BME280;5493;48.884;8.338;2023-04-22T09:17:10;99488.31;;;26.76;77.52
10881;BME280;5493;48.884;8.338;2023-04-22T09:19:40;99473.00;;;26.10;82.38
10881;BME280;5493;48.884;8.338;2023-04-22T09:22:08;99482.19;;;26.02;78.94
10881;BME280;5493;48.884;8.338;2023-04-22T09:24:42;99465.84;;;26.90;80.59
10881;BME280;5493;48.884;8.338;2023-04-22T09:27:09;99473.66;;;26.52;76.00
10881;BME280;5493;48.884;8.338;2023-04-22T09:29:36;99472.91;;;25.73;83.49
10881;BME280;5493;48.884;8.338;2023-04-22T09:32:08;99472.41;;;26.85;80.71
10881;BME280;5493;48.884;8.338;2023-04-22T09:34:44;99467.44;;;26.79;84.07
10881;BME280;5493;48.884;8.338;2023-04-22T09:37:11;99468.25;;;27.04;77.04
10881;BME280;5493;48.884;8.338;2023-04-22T09:39:42;99482.09;;;27.44;80.95
10881;BME280;5493;48.884;8.338;2023-04-22T09:42:08;99482.94;;;28.00;73.41
10881;BME280;5493;48.884;8.338;2023-04-22T09:44:37;99484.38;;;27.66;67.14
10881;BME280;5493;48.884;8.338;2023-04-22T09:47:04;99491.22;;;27.44;72.67
10881;BME280;5493;48.884;8.338;2023-04-22T09:49:35;99494.09;;;28.31;68.94
10881;BME280;5493;48.884;8.338;2023-04-22T09:52:03;99485.00;;;27.47;73.27
10881;BME280;5493;48.884;8.338;2023-04-22T09:54:29;99477.63;;;27.51;73.06
10881;BME280;5493;48.884;8.338;2023-04-22T09:56:57;99467.09;;;27.05;78.10
10881;BME280;5493;48.884;8.338;2023-04-22T09:59:25;99466.47;;;27.23;71.81
10881;BME280;5493;48.884;8.338;2023-04-22T10:01:54;99471.84;;;27.56;77.00
10881;BME280;5493;48.884;8.338;2023-04-22T10:04:21;99464.59;;;28.39;73.71
10881;BME280;5493;48.884;8.338;2023-04-22T10:06:50;99465.00;;;28.41;68.63
10881;BME280;5493;48.884;8.338;2023-04-22T10:09:18;99466.81;;;28.33;65.88
10881;BME280;5493;48.884;8.338;2023-04-22T10:11:45;99457.78;;;27.77;62.23
10881;BME280;5493;48.884;8.338;2023-04-22T10:14:13;99461.13;;;27.98;65.91
10881;BME280;5493;48.884;8.338;2023-04-22T10:16:42;99460.03;;;28.46;62.40
10881;BME280;5493;48.884;8.338;2023-04-22T10:19:11;99456.91;;;28.32;65.00
10881;BME280;5493;48.884;8.338;2023-04-22T10:21:40;99465.47;;;28.43;66.40
10881;BME280;5493;48.884;8.338;2023-04-22T10:24:14;99453.13;;;28.24;60.41
10881;BME280;5493;48.884;8.338;2023-04-22T10:26:42;99454.25;;;28.08;66.38
10881;BME280;5493;48.884;8.338;2023-04-22T10:29:14;99442.84;;;28.25;56.25
10881;BME280;5493;48.884;8.338;2023-04-22T10:31:42;99451.84;;;27.63;56.52
10881;BME280;5493;48.884;8.338;2023-04-22T10:34:10;99454.03;;;27.17;60.81
10881;BME280;5493;48.884;8.338;2023-04-22T10:36:55;99450.03;;;27.42;58.15
10881;BME280;5493;48.884;8.338;2023-04-22T10:39:22;99446.47;;;26.41;61.47
10881;BME280;5493;48.884;8.338;2023-04-22T10:41:56;99451.91;;;26.62;54.95
10881;BME280;5493;48.884;8.338;2023-04-22T10:44:27;99450.31;;;26.04;57.17
10881;BME280;5493;48.884;8.338;2023-04-22T10:46:58;99448.13;;;26.10;54.16
10881;BME280;5493;48.884;8.338;2023-04-22T10:49:28;99447.09;;;26.02;58.50
10881;BME280;5493;48.884;8.338;2023-04-22T10:51:56;99456.09;;;25.25;60.65
10881;BME280;5493;48.884;8.338;2023-04-22T10:54:54;99457.97;;;24.83;61.83
10881;BME280;5493;48.884;8.338;2023-04-22T10:57:21;99458.09;;;24.95;65.79
10881;BME280;5493;48.884;8.338;2023-04-22T10:59:51;99449.09;;;25.07;64.03
10881;BME280;5493;48.884;8.338;2023-04-22T11:02:19;99458.91;;;24.95;66.58
10881;BME280;5493;48.884;8.338;2023-04-22T11:04:47;99456.66;;;24.89;69.69
10881;BME280;5493;48.884;8.338;2023-04-22T11:07:14;99452.13;;;25.14;66.77
10881;BME280;5493;48.884;8.338;2023-04-22T11:09:43;99455.03;;;25.17;67.75
10881;BME280;5493;48.884;8.338;2023-04-22T11:12:41;99473.19;;;24.13;67.62
10881;BME280;5493;48.884;8.338;2023-04-22T11:15:11;99469.13;;;24.11;73.29
10881;BME280;5493;48.884;8.338;2023-04-22T11:17:39;99456.78;;;23.62;70.74
10881;BME280;5493;48.884;8.338;2023-04-22T11:20:08;99451.59;;;23.60;68.57
10881;BME280;5493;48.884;8.338;2023-04-22T11:22:36;99464.00;;;24.00;65.86
10881;BME280;5493;48.884;8.338;2023-04-22T11:25:03;99457.22;;;24.44;65.26
10881;BME280;5493;48.884;8.338;2023-04-22T11:27:31;99455.03;;;24.59;63.33
10881;BME280;5493;48.884;8.338;2023-04-22T11:29:59;99446.50;;;24.05;67.15
10881;BME280;5493;48.884;8.338;2023-04-22T11:32:27;99461.31;;;23.58;66.05
10881;BME280;5493;48.884;8.338;2023-04-22T11:34:54;99460.78;;;23.81;65.89
10881;BME280;5493;48.884;8.338;2023-04-22T11:37:21;99485.25;;;23.83;66.62
10881;BME280;5493;48.884;8.338;2023-04-22T11:39:48;99478.78;;;23.36;66.16
10881;BME280;5493;48.884;8.338;2023-04-22T11:42:19;99476.03;;;23.36;67.35
10881;BME280;5493;48.884;8.338;2023-04-22T11:44:46;99476.38;;;23.43;67.65
10881;BME280;5493;48.884;8.338;2023-04-22T11:47:13;99471.03;;;23.46;68.69
10881;BME280;5493;48.884;8.338;2023-04-22T11:49:40;99481.03;;;23.17;67.92
10881;BME280;5493;48.884;8.338;2023-04-22T11:52:07;99480.28;;;24.31;64.33
10881;BME280;5493;48.884;8.338;2023-04-22T11:54:35;99474.16;;;24.17;65.85
10881;BME280;5493;48.884;8.338;2023-04-22T11:57:02;99485.63;;;24.28;64.60
10881;BME280;5493;48.884;8.338;2023-04-22T11:59:29;99480.00;;;23.98;67.48
10881;BME280;5493;48.884;8.338;2023-04-22T12:01:55;99474.16;;;24.17;66.29
10881;BME280;5493;48.884;8.338;2023-04-22T12:04:22;99467.81;;;24.25;66.06
10881;BME280;5493;48.884;8.338;2023-04-22T12:06:50;99468.94;;;24.33;65.70
10881;BME280;5493;48.884;8.338;2023-04-22T12:09:17;99460.72;;;24.54;64.26
10881;BME280;5493;48.884;8.338;2023-04-22T12:11:44;99465.53;;;24.27;62.08
10881;BME280;5493;48.884;8.338;2023-04-22T12:14:10;99461.84;;;24.90;59.84
10881;BME280;5493;48.884;8.338;2023-04-22T12:16:41;99462.88;;;24.48;58.39
10881;BME280;5493;48.884;8.338;2023-04-22T12:19:07;99465.91;;;24.55;59.74
10881;BME280;5493;48.884;8.338;2023-04-22T12:21:34;99465.16;;;24.75;57.57
10881;BME280;5493;48.884;8.338;2023-04-22T12:24:07;99470.88;;;24.32;54.38
10881;BME280;5493;48.884;8.338;2023-04-22T12:26:34;99473.50;;;24.67;58.94
10881;BME280;5493;48.884;8.338;2023-04-22T12:29:03;99468.84;;;24.79;57.87
10881;BME280;5493;48.884;8.338;2023-04-22T12:31:29;99473.19;;;24.89;55.09
10881;BME280;5493;48.884;8.338;2023-04-22T12:33:56;99466.50;;;24.98;62.53
10881;BME280;5493;48.884;8.338;2023-04-22T12:36:24;99462.81;;;24.57;60.30
10881;BME280;5493;48.884;8.338;2023-04-22T12:38:50;99463.72;;;24.40;62.59
10881;BME280;5493;48.884;8.338;2023-04-22T12:41:18;99457.31;;;24.57;64.07
10881;BME280;5493;48.884;8.338;2023-04-22T12:43:45;99463.00;;;24.14;60.93
10881;BME280;5493;48.884;8.338;2023-04-22T12:46:11;99456.41;;;24.44;59.57
10881;BME280;5493;48.884;8.338;2023-04-22T12:48:38;99451.09;;;24.68;57.68
10881;BME280;5493;48.884;8.338;2023-04-22T12:51:06;99437.25;;;24.77;53.28
10881;BME280;5493;48.884;8.338;2023-04-22T12:53:33;99447.72;;;25.33;52.73
10881;BME280;5493;48.884;8.338;2023-04-22T12:56:00;99454.44;;;25.65;52.83
10881;BME280;5493;48.884;8.338;2023-04-22T12:58:28;99451.88;;;25.39;51.87
10881;BME280;5493;48.884;8.338;2023-04-22T13:00:54;99453.09;;;25.51;51.49
10881;BME280;5493;48.884;8.338;2023-04-22T13:03:21;99454.63;;;25.81;51.18
10881;BME280;5493;48.884;8.338;2023-04-22T13:05:48;99450.50;;;26.68;51.44